Time;durP1;ratioP1;P1;durP2;ratioP2;P2;SDS_P1;SDS_P2;PMS_P1;PMS_P2;Temp;Humidity;BMP_temperature;BMP_pressure;BME280_temperature;BME280_humidity;BME280_pressure;Samples;Min_cycle;Max_cycle;Signal;HPM_P1;HPM_P2
2022/07/25 00:00:07;;;;;;;;;;;25.60;67.70;;;;;;5094837;28;19953;-48
2022/07/25 00:02:33;;;;;;;;;;;25.60;68.10;;;;;;5094607;28;19912;-48
2022/07/25 00:04:58;;;;;;;;;;;25.50;68.60;;;;;;5094505;28;19912;-54
2022/07/25 00:07:24;;;;;;;;;;;25.50;68.90;;;;;;5094411;28;20006;-48
2022/07/25 00:09:49;;;;;;;;;;;25.40;68.80;;;;;;5094884;28;19954;-49
2022/07/25 00:12:15;;;;;;;;;;;25.40;69.70;;;;;;5095335;28;19948;-51
2022/07/25 00:14:41;;;;;;;;;;;25.30;69.10;;;;;;5094773;28;19920;-52
2022/07/25 00:17:06;;;;;;;;;;;25.30;69.10;;;;;;5092743;28;19913;-47
2022/07/25 00:19:32;;;;;;;;;;;25.30;69.40;;;;;;5094561;28;20263;-48
2022/07/25 00:21:57;;;;;;;;;;;25.20;69.60;;;;;;5094070;28;19934;-49
2022/07/25 00:24:23;;;;;;;;;;;25.10;70.00;;;;;;5092894;28;19961;-50
2022/07/25 00:26:48;;;;;;;;;;;25.10;70.30;;;;;;5093583;28;19923;-47
2022/07/25 00:29:14;;;;;;;;;;;25.10;70.60;;;;;;5093741;28;19908;-49
2022/07/25 00:31:39;;;;;;;;;;;25.00;71.00;;;;;;5093711;28;19913;-52
2022/07/25 00:34:05;;;;;;;;;;;25.00;71.50;;;;;;5094107;28;19916;-47
2022/07/25 00:36:30;;;;;;;;;;;24.90;71.80;;;;;;5094312;28;19919;-49
2022/07/25 00:38:56;;;;;;;;;;;24.90;72.20;;;;;;5094205;28;19915;-48
2022/07/25 00:41:22;;;;;;;;;;;24.80;73.10;;;;;;5093632;28;19908;-55
2022/07/25 00:43:47;;;;;;;;;;;24.70;73.40;;;;;;5093497;28;19912;-46
2022/07/25 00:46:13;;;;;;;;;;;24.60;73.90;;;;;;5092826;28;19912;-47
2022/07/25 00:48:39;;;;;;;;;;;24.60;74.10;;;;;;5093363;28;19953;-47
2022/07/25 00:51:05;;;;;;;;;;;24.60;74.40;;;;;;5092929;28;20390;-47
2022/07/25 00:53:31;;;;;;;;;;;24.50;74.50;;;;;;5095431;28;19912;-46
2022/07/25 00:55:57;;;;;;;;;;;24.40;74.80;;;;;;5093489;28;19916;-48
2022/07/25 00:58:22;;;;;;;;;;;24.30;74.70;;;;;;5093929;28;19920;-51
2022/07/25 01:00:48;;;;;;;;;;;24.20;74.80;;;;;;5092698;28;19923;-46
2022/07/25 01:03:14;;;;;;;;;;;24.20;75.20;;;;;;5093215;28;19966;-49
2022/07/25 01:05:39;;;;;;;;;;;24.00;76.70;;;;;;5092577;28;19999;-49
2022/07/25 01:08:05;;;;;;;;;;;24.00;77.50;;;;;;5092914;28;20014;-49
2022/07/25 01:10:31;;;;;;;;;;;23.90;76.30;;;;;;5093797;28;20286;-50
2022/07/25 01:12:57;;;;;;;;;;;23.70;76.60;;;;;;5093695;28;20006;-50
2022/07/25 01:15:23;;;;;;;;;;;23.70;76.40;;;;;;5092606;28;20031;-52
2022/07/25 01:17:48;;;;;;;;;;;23.70;75.70;;;;;;5092622;28;19955;-48
2022/07/25 01:20:21;;;;;;;;;;;23.70;75.30;;;;;;5094847;28;19908;-52
2022/07/25 01:22:47;;;;;;;;;;;23.80;75.10;;;;;;5094052;28;19908;-50
2022/07/25 01:25:13;;;;;;;;;;;23.90;75.80;;;;;;5094537;28;20382;-47
2022/07/25 01:27:39;;;;;;;;;;;23.90;76.60;;;;;;5094061;28;19916;-49
2022/07/25 01:30:06;;;;;;;;;;;23.90;77.20;;;;;;5092625;28;20249;-46
2022/07/25 01:32:31;;;;;;;;;;;23.90;78.20;;;;;;5094671;28;19920;-49
2022/07/25 01:34:57;;;;;;;;;;;23.80;79.40;;;;;;5094007;28;19981;-46
2022/07/25 01:37:22;;;;;;;;;;;23.70;80.60;;;;;;5094773;28;19915;-48
2022/07/25 01:39:48;;;;;;;;;;;23.60;81.00;;;;;;5095030;28;19917;-51
2022/07/25 01:42:14;;;;;;;;;;;23.50;81.90;;;;;;5092709;28;19915;-49
2022/07/25 01:44:39;;;;;;;;;;;23.50;82.20;;;;;;5093730;28;19919;-46
2022/07/25 01:47:05;;;;;;;;;;;23.50;82.20;;;;;;5093263;28;19913;-47
2022/07/25 01:49:31;;;;;;;;;;;23.40;82.00;;;;;;5094049;28;20004;-52
2022/07/25 01:51:56;;;;;;;;;;;23.40;81.80;;;;;;5093538;28;20066;-51
2022/07/25 01:54:22;;;;;;;;;;;23.40;81.80;;;;;;5092193;28;19969;-53
2022/07/25 01:56:48;;;;;;;;;;;23.40;82.10;;;;;;5091696;28;19920;-53
2022/07/25 01:59:13;;;;;;;;;;;23.40;82.00;;;;;;5092040;28;20298;-50
2022/07/25 02:01:39;;;;;;;;;;;23.40;82.60;;;;;;5092751;28;19908;-55
2022/07/25 02:04:04;;;;;;;;;;;23.30;82.30;;;;;;5094185;28;19951;-52
2022/07/25 02:06:30;;;;;;;;;;;23.30;82.50;;;;;;5093393;28;19935;-51
2022/07/25 02:08:55;;;;;;;;;;;23.30;82.50;;;;;;5093045;28;19938;-51
2022/07/25 02:11:21;;;;;;;;;;;23.20;81.80;;;;;;5091795;28;19938;-50
2022/07/25 02:13:47;;;;;;;;;;;23.20;81.60;;;;;;5092236;28;19950;-52
2022/07/25 02:16:12;;;;;;;;;;;23.10;81.10;;;;;;5092652;28;19961;-53
2022/07/25 02:18:38;;;;;;;;;;;23.10;80.30;;;;;;5096432;28;20007;-51
2022/07/25 02:21:08;;;;;;;;;;;23.10;79.70;;;;;;5096684;28;19951;-54
2022/07/25 02:23:34;;;;;;;;;;;23.20;80.80;;;;;;5097411;28;19920;-49
2022/07/25 02:26:00;;;;;;;;;;;23.10;80.80;;;;;;5097347;28;19920;-51
2022/07/25 02:28:25;;;;;;;;;;;23.10;82.10;;;;;;5097288;28;19928;-49
2022/07/25 02:30:51;;;;;;;;;;;23.10;82.30;;;;;;5096543;28;19908;-52
2022/07/25 02:33:17;;;;;;;;;;;23.10;82.20;;;;;;5096139;28;19908;-53
2022/07/25 02:35:42;;;;;;;;;;;23.10;82.30;;;;;;5095859;28;19923;-49
2022/07/25 02:38:08;;;;;;;;;;;23.00;82.50;;;;;;5096097;28;19967;-50
2022/07/25 02:40:33;;;;;;;;;;;23.00;82.60;;;;;;5095080;28;20010;-51
2022/07/25 02:42:59;;;;;;;;;;;22.90;82.70;;;;;;5094815;28;19908;-52
2022/07/25 02:45:24;;;;;;;;;;;22.80;82.90;;;;;;5096061;28;19924;-53
2022/07/25 02:47:50;;;;;;;;;;;22.70;83.20;;;;;;5096011;28;20318;-55
2022/07/25 02:50:16;;;;;;;;;;;22.70;83.80;;;;;;5095996;28;19966;-50
2022/07/25 02:52:42;;;;;;;;;;;22.80;83.80;;;;;;5097330;28;20299;-54
2022/07/25 02:55:08;;;;;;;;;;;22.80;83.70;;;;;;5096852;28;20003;-51
2022/07/25 02:57:34;;;;;;;;;;;22.70;83.50;;;;;;5095618;28;20347;-53
2022/07/25 02:59:59;;;;;;;;;;;22.70;83.40;;;;;;5095902;28;20007;-52
2022/07/25 03:02:25;;;;;;;;;;;22.80;83.60;;;;;;5096129;28;19973;-51
2022/07/25 03:04:50;;;;;;;;;;;22.70;83.30;;;;;;5097674;28;19943;-53
2022/07/25 03:07:16;;;;;;;;;;;22.70;83.80;;;;;;5096883;28;19915;-55
2022/07/25 03:09:41;;;;;;;;;;;22.70;83.90;;;;;;5096607;28;19913;-51
2022/07/25 03:12:07;;;;;;;;;;;22.60;84.30;;;;;;5096182;28;19978;-54
2022/07/25 03:14:32;;;;;;;;;;;22.50;85.10;;;;;;5095133;28;19963;-52
2022/07/25 03:16:58;;;;;;;;;;;22.50;85.20;;;;;;5095285;28;19923;-54
2022/07/25 03:19:23;;;;;;;;;;;22.40;85.60;;;;;;5097738;28;20003;-51
2022/07/25 03:21:49;;;;;;;;;;;22.40;86.00;;;;;;5096969;28;19957;-55
2022/07/25 03:24:15;;;;;;;;;;;22.40;86.20;;;;;;5097627;28;20287;-51
2022/07/25 03:26:40;;;;;;;;;;;22.40;86.00;;;;;;5096053;28;19916;-53
2022/07/25 03:29:06;;;;;;;;;;;22.40;85.60;;;;;;5094941;28;19916;-52
2022/07/25 03:31:31;;;;;;;;;;;22.40;85.40;;;;;;5095827;28;19912;-54
2022/07/25 03:33:57;;;;;;;;;;;22.40;85.00;;;;;;5095445;28;19912;-53
2022/07/25 03:36:22;;;;;;;;;;;22.40;84.80;;;;;;5095056;28;19912;-55
2022/07/25 03:38:48;;;;;;;;;;;22.40;85.00;;;;;;5095489;28;19962;-56
2022/07/25 03:41:13;;;;;;;;;;;22.50;84.80;;;;;;5094671;28;20360;-52
2022/07/25 03:43:39;;;;;;;;;;;22.50;84.90;;;;;;5093894;28;20368;-52
2022/07/25 03:46:04;;;;;;;;;;;22.50;85.20;;;;;;5094218;28;20049;-56
2022/07/25 03:48:30;;;;;;;;;;;22.50;85.30;;;;;;5095986;28;19916;-56
2022/07/25 03:50:56;;;;;;;;;;;22.50;85.10;;;;;;5095384;28;19990;-53
2022/07/25 03:53:21;;;;;;;;;;;22.50;84.80;;;;;;5095492;28;20283;-53
2022/07/25 03:55:47;;;;;;;;;;;22.50;85.10;;;;;;5094234;28;19921;-53
2022/07/25 03:58:13;;;;;;;;;;;22.50;85.00;;;;;;5094620;28;19908;-54
2022/07/25 04:00:38;;;;;;;;;;;22.50;85.10;;;;;;5094626;28;19926;-52
2022/07/25 04:03:04;;;;;;;;;;;22.50;85.30;;;;;;5094776;28;19912;-50
2022/07/25 04:05:29;;;;;;;;;;;22.50;85.60;;;;;;5095846;28;19918;-55
2022/07/25 04:07:55;;;;;;;;;;;22.50;85.00;;;;;;5094072;28;19908;-53
2022/07/25 04:10:20;;;;;;;;;;;22.50;84.80;;;;;;5095702;28;19919;-55
2022/07/25 04:12:46;;;;;;;;;;;22.60;84.60;;;;;;5094142;28;19912;-53
2022/07/25 04:15:11;;;;;;;;;;;22.70;84.60;;;;;;5093555;28;19916;-54
2022/07/25 04:17:37;;;;;;;;;;;22.70;84.50;;;;;;5093758;28;20000;-53
2022/07/25 04:20:03;;;;;;;;;;;22.80;83.80;;;;;;5094131;28;19912;-54
2022/07/25 04:22:29;;;;;;;;;;;22.80;83.30;;;;;;5093221;28;19974;-53
2022/07/25 04:24:54;;;;;;;;;;;22.80;82.90;;;;;;5094686;28;20345;-53
2022/07/25 04:27:20;;;;;;;;;;;22.90;83.20;;;;;;5094073;28;19961;-52
2022/07/25 04:29:45;;;;;;;;;;;22.90;83.40;;;;;;5094091;28;20417;-54
2022/07/25 04:32:12;;;;;;;;;;;22.80;83.60;;;;;;5094824;28;19957;-52
2022/07/25 04:34:37;;;;;;;;;;;22.90;83.60;;;;;;5092980;28;19923;-53
2022/07/25 04:37:03;;;;;;;;;;;23.00;83.80;;;;;;5092174;28;19916;-51
2022/07/25 04:39:28;;;;;;;;;;;23.00;83.50;;;;;;5093750;28;19985;-53
2022/07/25 04:41:54;;;;;;;;;;;23.10;82.90;;;;;;5093979;28;20072;-55
2022/07/25 04:44:20;;;;;;;;;;;23.10;82.70;;;;;;5094279;28;19935;-54
2022/07/25 04:46:45;;;;;;;;;;;23.20;81.80;;;;;;5092847;28;19908;-49
2022/07/25 04:49:11;;;;;;;;;;;23.30;81.20;;;;;;5095126;28;19912;-53
2022/07/25 04:51:36;;;;;;;;;;;23.30;80.20;;;;;;5094096;28;19912;-50
2022/07/25 04:54:02;;;;;;;;;;;23.40;79.90;;;;;;5093126;28;19912;-53
2022/07/25 04:56:28;;;;;;;;;;;23.50;79.50;;;;;;5093329;28;19916;-55
2022/07/25 04:58:53;;;;;;;;;;;23.60;79.20;;;;;;5093607;28;19912;-54
2022/07/25 05:01:19;;;;;;;;;;;23.60;78.80;;;;;;5093348;28;20486;-52
2022/07/25 05:03:44;;;;;;;;;;;23.60;78.50;;;;;;5093350;28;19915;-56
2022/07/25 05:06:10;;;;;;;;;;;23.60;78.10;;;;;;5093452;28;20297;-55
2022/07/25 05:08:35;;;;;;;;;;;23.60;78.60;;;;;;5094501;28;19912;-53
2022/07/25 05:11:01;;;;;;;;;;;23.70;77.90;;;;;;5093705;28;19912;-54
2022/07/25 05:13:26;;;;;;;;;;;23.70;77.60;;;;;;5093697;28;19912;-52
2022/07/25 05:15:52;;;;;;;;;;;23.80;77.50;;;;;;5092786;28;19916;-51
2022/07/25 05:18:18;;;;;;;;;;;23.80;77.50;;;;;;5092948;28;19957;-55
2022/07/25 05:20:43;;;;;;;;;;;23.80;77.50;;;;;;5095288;28;19912;-52
2022/07/25 05:23:09;;;;;;;;;;;23.80;77.60;;;;;;5094344;28;19916;-55
2022/07/25 05:25:34;;;;;;;;;;;23.90;77.60;;;;;;5093095;28;19916;-53
2022/07/25 05:28:01;;;;;;;;;;;23.90;77.50;;;;;;5093228;28;19908;-52
2022/07/25 05:30:27;;;;;;;;;;;23.90;77.40;;;;;;5092046;28;19908;-53
2022/07/25 05:32:53;;;;;;;;;;;23.90;77.00;;;;;;5094437;28;19958;-53
2022/07/25 05:35:18;;;;;;;;;;;23.80;77.10;;;;;;5092539;28;19920;-55
2022/07/25 05:37:44;;;;;;;;;;;23.80;77.90;;;;;;5094176;28;19985;-52
2022/07/25 05:40:10;;;;;;;;;;;23.90;77.20;;;;;;5093039;28;19977;-54
2022/07/25 05:42:35;;;;;;;;;;;23.90;77.30;;;;;;5093322;28;19967;-55
2022/07/25 05:45:01;;;;;;;;;;;24.00;77.40;;;;;;5093085;28;19940;-51
2022/07/25 05:47:26;;;;;;;;;;;24.00;77.00;;;;;;5093283;28;19912;-54
2022/07/25 05:49:52;;;;;;;;;;;24.00;77.10;;;;;;5093605;28;20391;-55
2022/07/25 05:52:17;;;;;;;;;;;24.10;77.00;;;;;;5096366;28;20368;-54
2022/07/25 05:54:43;;;;;;;;;;;24.10;77.30;;;;;;5097909;28;20457;-51
2022/07/25 05:57:08;;;;;;;;;;;24.00;77.50;;;;;;5095844;28;20407;-51
2022/07/25 05:59:34;;;;;;;;;;;24.00;77.30;;;;;;5097103;28;19912;-55
2022/07/25 06:02:00;;;;;;;;;;;24.20;77.30;;;;;;5097196;28;19919;-51
2022/07/25 06:04:25;;;;;;;;;;;24.20;77.30;;;;;;5097913;28;20312;-54
2022/07/25 06:06:51;;;;;;;;;;;24.20;77.40;;;;;;5096046;28;19979;-54
2022/07/25 06:09:18;;;;;;;;;;;24.30;77.30;;;;;;5097391;28;19997;-54
2022/07/25 06:11:43;;;;;;;;;;;24.30;77.10;;;;;;5096980;28;19919;-54
2022/07/25 06:14:09;;;;;;;;;;;24.30;77.20;;;;;;5096950;28;19912;-54
2022/07/25 06:16:34;;;;;;;;;;;24.30;77.10;;;;;;5098054;28;20347;-51
2022/07/25 06:19:00;;;;;;;;;;;24.40;77.10;;;;;;5096966;28;19950;-50
2022/07/25 06:21:25;;;;;;;;;;;24.50;77.20;;;;;;5096714;28;19924;-51
2022/07/25 06:23:51;;;;;;;;;;;24.60;77.00;;;;;;5096220;28;20010;-54
2022/07/25 06:26:17;;;;;;;;;;;24.50;77.10;;;;;;5095300;28;20481;-50
2022/07/25 06:28:42;;;;;;;;;;;24.60;76.80;;;;;;5096082;28;19939;-51
2022/07/25 06:31:08;;;;;;;;;;;24.70;76.70;;;;;;5096401;28;19916;-52
2022/07/25 06:33:33;;;;;;;;;;;24.70;76.90;;;;;;5097416;28;19916;-52
2022/07/25 06:35:59;;;;;;;;;;;24.80;77.00;;;;;;5096362;28;19920;-51
2022/07/25 06:38:24;;;;;;;;;;;24.80;76.80;;;;;;5097292;28;19912;-53
2022/07/25 06:40:50;;;;;;;;;;;25.00;76.70;;;;;;5097229;28;19912;-55
2022/07/25 06:43:15;;;;;;;;;;;25.00;76.60;;;;;;5096921;28;20562;-56
2022/07/25 06:45:46;;;;;;;;;;;25.10;76.50;;;;;;5095979;28;19912;-56
2022/07/25 06:48:12;;;;;;;;;;;25.20;76.30;;;;;;5096646;28;20291;-53
2022/07/25 06:50:38;;;;;;;;;;;25.20;76.40;;;;;;5096650;28;20027;-53
2022/07/25 06:53:03;;;;;;;;;;;25.20;76.20;;;;;;5096876;28;20037;-48
2022/07/25 06:55:29;;;;;;;;;;;25.20;76.20;;;;;;5095322;28;19916;-54
2022/07/25 06:57:54;;;;;;;;;;;25.20;76.20;;;;;;5096072;28;19928;-51
2022/07/25 07:00:20;;;;;;;;;;;25.20;76.40;;;;;;5096356;28;19962;-51
2022/07/25 07:02:56;;;;;;;;;;;25.20;76.20;;;;;;5093850;28;20395;-55
2022/07/25 07:05:22;;;;;;;;;;;25.30;76.30;;;;;;5094308;28;19912;-53
2022/07/25 07:07:48;;;;;;;;;;;25.40;76.20;;;;;;5095535;28;19908;-54
2022/07/25 07:10:14;;;;;;;;;;;25.40;76.30;;;;;;5096388;28;19919;-55
2022/07/25 07:12:39;;;;;;;;;;;25.50;76.30;;;;;;5096303;28;19920;-52
2022/07/25 07:15:05;;;;;;;;;;;25.70;76.30;;;;;;5096356;28;19916;-50
2022/07/25 07:17:31;;;;;;;;;;;25.70;76.50;;;;;;5095401;28;19916;-51
2022/07/25 07:19:56;;;;;;;;;;;25.70;76.50;;;;;;5095457;28;19969;-55
2022/07/25 07:22:22;;;;;;;;;;;25.90;76.30;;;;;;5096001;28;19969;-53
2022/07/25 07:24:53;;;;;;;;;;;26.10;76.00;;;;;;5098669;28;19927;-52
2022/07/25 07:27:18;;;;;;;;;;;26.20;75.60;;;;;;5095381;28;19919;-52
2022/07/25 07:29:44;;;;;;;;;;;26.30;75.90;;;;;;5095938;28;19908;-55
2022/07/25 07:32:09;;;;;;;;;;;26.50;75.10;;;;;;5097381;28;19920;-51
2022/07/25 07:34:35;;;;;;;;;;;26.50;74.50;;;;;;5097022;28;19920;-54
2022/07/25 07:37:02;;;;;;;;;;;26.50;74.80;;;;;;5097281;28;20394;-49
2022/07/25 07:39:27;;;;;;;;;;;26.70;74.70;;;;;;5096087;28;19916;-50
2022/07/25 07:41:53;;;;;;;;;;;26.90;74.30;;;;;;5095530;28;19914;-50
2022/07/25 07:44:22;;;;;;;;;;;26.90;74.10;;;;;;5096218;28;20401;-52
2022/07/25 07:46:48;;;;;;;;;;;27.00;73.20;;;;;;5094355;28;19959;-52
2022/07/25 07:49:13;;;;;;;;;;;27.00;73.20;;;;;;5094772;28;19912;-48
2022/07/25 07:51:39;;;;;;;;;;;27.10;73.50;;;;;;5095990;28;20394;-50
2022/07/25 07:56:48;;;;;;;;;;;27.40;73.30;;;;;;5095284;28;20379;-51
2022/07/25 07:59:14;;;;;;;;;;;27.50;73.20;;;;;;5077536;28;19919;-47
2022/07/25 08:01:40;;;;;;;;;;;27.70;73.20;;;;;;5094881;28;20180;-47
2022/07/25 08:04:05;;;;;;;;;;;27.80;73.00;;;;;;5096450;28;20002;-49
2022/07/25 08:06:31;;;;;;;;;;;28.00;72.50;;;;;;5095464;28;19959;-51
2022/07/25 08:08:56;;;;;;;;;;;28.10;71.20;;;;;;5095512;28;20060;-47
2022/07/25 08:11:22;;;;;;;;;;;28.20;70.40;;;;;;5095437;28;19953;-49
2022/07/25 08:13:47;;;;;;;;;;;28.40;70.00;;;;;;5094425;28;19912;-52
2022/07/25 08:16:13;;;;;;;;;;;28.40;69.80;;;;;;5093051;28;19927;-53
2022/07/25 08:18:39;;;;;;;;;;;28.50;70.20;;;;;;5094751;28;19916;-51
2022/07/25 08:21:05;;;;;;;;;;;28.60;69.50;;;;;;5094182;28;19912;-50
2022/07/25 08:23:33;;;;;;;;;;;28.80;69.60;;;;;;5094042;28;20402;-48
2022/07/25 08:25:59;;;;;;;;;;;28.90;69.50;;;;;;5094065;28;19912;-49
2022/07/25 08:28:25;;;;;;;;;;;29.20;68.90;;;;;;5093911;28;19908;-48
2022/07/25 08:30:51;;;;;;;;;;;29.30;68.20;;;;;;5094194;28;20278;-48
2022/07/25 08:33:17;;;;;;;;;;;29.40;67.90;;;;;;5094486;28;19953;-53
2022/07/25 08:35:53;;;;;;;;;;;29.50;67.60;;;;;;5093718;28;19916;-55
2022/07/25 08:38:19;;;;;;;;;;;29.70;66.30;;;;;;5094011;28;19912;-54
2022/07/25 08:40:45;;;;;;;;;;;29.70;66.50;;;;;;5093982;28;20367;-51
2022/07/25 08:43:12;;;;;;;;;;;29.80;66.10;;;;;;5092284;28;20279;-50
2022/07/25 08:45:42;;;;;;;;;;;29.90;65.80;;;;;;5094396;28;20175;-47
2022/07/25 08:48:08;;;;;;;;;;;30.00;65.90;;;;;;5094373;28;19944;-51
2022/07/25 08:50:33;;;;;;;;;;;30.10;65.00;;;;;;5094213;28;20009;-48
2022/07/25 08:52:59;;;;;;;;;;;30.10;64.90;;;;;;5094441;28;19920;-49
2022/07/25 08:55:27;;;;;;;;;;;30.30;64.70;;;;;;5094763;28;19916;-53
2022/07/25 08:57:53;;;;;;;;;;;30.30;64.40;;;;;;5094195;28;19938;-51
2022/07/25 09:00:24;;;;;;;;;;;30.30;64.30;;;;;;5094494;28;19916;-56
2022/07/25 09:02:59;;;;;;;;;;;30.40;63.90;;;;;;5092282;28;19916;-47
2022/07/25 09:05:25;;;;;;;;;;;30.50;64.20;;;;;;5093886;28;19908;-52
2022/07/25 09:07:53;;;;;;;;;;;30.50;62.80;;;;;;5093483;28;19908;-54
2022/07/25 09:10:20;;;;;;;;;;;30.60;62.80;;;;;;5082390;28;20332;-46
2022/07/25 09:12:57;;;;;;;;;;;30.60;62.90;;;;;;5093070;28;19953;-49
2022/07/25 09:15:28;;;;;;;;;;;30.60;62.30;;;;;;5093435;28;19912;-46
2022/07/25 09:17:54;;;;;;;;;;;30.50;62.20;;;;;;5093178;28;19908;-51
2022/07/25 09:20:23;;;;;;;;;;;30.70;62.10;;;;;;5092927;28;19913;-49
2022/07/25 09:22:48;;;;;;;;;;;30.80;61.40;;;;;;5093369;28;19912;-52
2022/07/25 09:25:21;;;;;;;;;;;30.80;61.00;;;;;;5093981;28;20295;-50
2022/07/25 09:27:46;;;;;;;;;;;30.90;60.70;;;;;;5093890;28;19912;-46
2022/07/25 09:30:13;;;;;;;;;;;31.00;60.80;;;;;;5092758;28;19912;-49
2022/07/25 09:32:39;;;;;;;;;;;31.10;61.20;;;;;;5093141;28;20433;-46
2022/07/25 09:35:04;;;;;;;;;;;31.10;60.80;;;;;;5092348;28;19920;-47
2022/07/25 09:37:32;;;;;;;;;;;31.20;60.80;;;;;;5092226;28;20618;-51
2022/07/25 09:39:57;;;;;;;;;;;31.30;60.20;;;;;;5092924;28;19908;-46
2022/07/25 09:42:23;;;;;;;;;;;31.40;59.70;;;;;;5093746;28;20272;-46
2022/07/25 09:45:11;;;;;;;;;;;31.50;59.90;;;;;;5093212;28;19919;-52
2022/07/25 09:47:57;;;;;;;;;;;31.50;59.90;;;;;;5092975;28;19951;-47
2022/07/25 09:50:23;;;;;;;;;;;31.50;59.20;;;;;;5092876;28;19908;-49
2022/07/25 09:52:52;;;;;;;;;;;31.50;59.90;;;;;;5093666;28;19923;-47
2022/07/25 09:55:19;;;;;;;;;;;31.50;59.50;;;;;;5092869;28;19916;-47
2022/07/25 09:57:48;;;;;;;;;;;31.50;59.30;;;;;;5092700;28;19908;-55
2022/07/25 10:00:15;;;;;;;;;;;31.60;58.90;;;;;;5092533;28;20298;-48
2022/07/25 10:02:59;;;;;;;;;;;31.60;59.30;;;;;;5092589;28;19936;-51
2022/07/25 10:05:25;;;;;;;;;;;31.80;58.50;;;;;;5092933;28;20415;-50
2022/07/25 10:07:52;;;;;;;;;;;31.90;58.10;;;;;;5093280;28;19908;-55
2022/07/25 10:10:28;;;;;;;;;;;31.90;58.80;;;;;;5093154;28;19912;-49
2022/07/25 10:12:58;;;;;;;;;;;31.90;58.60;;;;;;5093421;28;19909;-49
2022/07/25 10:15:24;;;;;;;;;;;31.90;58.50;;;;;;5092577;28;19912;-47
2022/07/25 10:18:00;;;;;;;;;;;32.00;58.00;;;;;;5092639;28;19908;-49
2022/07/25 10:20:26;;;;;;;;;;;32.10;58.40;;;;;;5093021;28;19908;-47
2022/07/25 10:22:52;;;;;;;;;;;32.30;58.40;;;;;;5092317;28;19965;-49
2022/07/25 10:25:19;;;;;;;;;;;32.10;57.30;;;;;;5092622;28;20372;-51
2022/07/25 10:27:47;;;;;;;;;;;32.20;58.00;;;;;;5091993;28;19957;-49
2022/07/25 10:30:22;;;;;;;;;;;32.50;58.00;;;;;;5091973;28;19912;-48
2022/07/25 10:33:00;;;;;;;;;;;32.60;56.00;;;;;;5092609;28;20497;-53
2022/07/25 10:35:26;;;;;;;;;;;32.50;56.40;;;;;;5092331;28;19916;-48
2022/07/25 10:37:53;;;;;;;;;;;32.60;55.70;;;;;;5093269;28;20294;-49
2022/07/25 10:40:26;;;;;;;;;;;32.70;55.30;;;;;;5096866;28;19917;-50
2022/07/25 10:43:02;;;;;;;;;;;32.90;54.30;;;;;;5096585;28;19916;-48
2022/07/25 10:45:35;;;;;;;;;;;33.00;54.50;;;;;;5075924;28;19994;-51
2022/07/25 10:48:05;;;;;;;;;;;33.20;53.70;;;;;;5076359;28;20376;-47
2022/07/25 10:50:30;;;;;;;;;;;33.20;52.40;;;;;;5075926;28;20295;-50
2022/07/25 10:52:58;;;;;;;;;;;33.20;52.30;;;;;;5075971;28;19951;-49
2022/07/25 10:55:23;;;;;;;;;;;33.20;52.60;;;;;;5075382;28;19920;-49
2022/07/25 10:58:03;;;;;;;;;;;33.10;53.30;;;;;;5076239;28;19912;-48
2022/07/25 11:00:29;;;;;;;;;;;33.10;54.30;;;;;;5074349;28;20299;-47
2022/07/25 11:02:56;;;;;;;;;;;33.20;53.80;;;;;;5075829;28;19920;-49
2022/07/25 11:05:21;;;;;;;;;;;33.30;53.10;;;;;;5076352;28;19908;-52
2022/07/25 11:07:55;;;;;;;;;;;33.40;52.70;;;;;;5074847;28;19919;-51
2022/07/25 11:10:24;;;;;;;;;;;33.50;53.10;;;;;;5076460;28;20328;-51
2022/07/25 11:12:50;;;;;;;;;;;33.60;52.40;;;;;;5076287;28;19930;-50
2022/07/25 11:15:15;;;;;;;;;;;33.60;52.10;;;;;;5075725;28;20015;-50
2022/07/25 11:17:48;;;;;;;;;;;33.50;51.50;;;;;;5076101;28;20085;-47
2022/07/25 11:20:15;;;;;;;;;;;33.60;52.20;;;;;;5076543;28;19951;-48
2022/07/25 11:22:40;;;;;;;;;;;33.70;52.30;;;;;;5076092;28;19966;-53
2022/07/25 11:25:10;;;;;;;;;;;33.90;51.90;;;;;;5075593;28;19916;-47
2022/07/25 11:27:36;;;;;;;;;;;34.10;51.70;;;;;;5074944;28;19999;-49
2022/07/25 11:30:07;;;;;;;;;;;34.30;52.00;;;;;;5075486;28;19951;-47
2022/07/25 11:32:40;;;;;;;;;;;34.30;51.60;;;;;;5075639;28;19908;-51
2022/07/25 11:35:06;;;;;;;;;;;34.00;51.80;;;;;;5075074;28;20330;-49
2022/07/25 11:37:35;;;;;;;;;;;34.00;52.20;;;;;;5088255;28;19908;-49
2022/07/25 11:40:01;;;;;;;;;;;34.10;52.60;;;;;;5096032;28;20015;-51
2022/07/25 11:42:27;;;;;;;;;;;34.20;52.00;;;;;;5094553;28;19970;-50
2022/07/25 11:44:53;;;;;;;;;;;34.00;51.90;;;;;;5095461;28;19940;-50
2022/07/25 11:47:24;;;;;;;;;;;33.90;52.40;;;;;;5093940;28;19908;-47
2022/07/25 11:49:51;;;;;;;;;;;33.90;52.30;;;;;;5095204;28;19912;-49
2022/07/25 11:52:36;;;;;;;;;;;34.00;52.20;;;;;;5095250;28;19908;-48
2022/07/25 11:55:05;;;;;;;;;;;34.10;52.10;;;;;;5094076;28;19943;-53
2022/07/25 11:57:32;;;;;;;;;;;34.10;52.00;;;;;;5094319;28;19908;-52
2022/07/25 11:59:59;;;;;;;;;;;34.10;52.20;;;;;;5094599;28;19912;-50
2022/07/25 12:02:31;;;;;;;;;;;34.10;52.10;;;;;;5094770;28;19908;-48
2022/07/25 12:04:58;;;;;;;;;;;33.90;52.00;;;;;;5094639;28;19920;-47
2022/07/25 12:07:36;;;;;;;;;;;33.90;52.20;;;;;;5094030;28;20436;-49
2022/07/25 12:10:02;;;;;;;;;;;34.00;52.30;;;;;;5094918;28;19958;-49
2022/07/25 12:12:28;;;;;;;;;;;34.00;52.10;;;;;;5094963;28;19909;-52
2022/07/25 12:14:53;;;;;;;;;;;34.00;52.30;;;;;;5095204;28;19912;-49
2022/07/25 12:17:19;;;;;;;;;;;33.90;52.00;;;;;;5094997;28;19920;-47
2022/07/25 12:19:48;;;;;;;;;;;34.10;52.20;;;;;;5094831;28;19916;-49
2022/07/25 12:22:13;;;;;;;;;;;34.30;51.60;;;;;;5094615;28;19914;-52
2022/07/25 12:24:39;;;;;;;;;;;34.50;51.70;;;;;;5093039;28;19942;-52
2022/07/25 12:27:07;;;;;;;;;;;34.50;52.00;;;;;;5094980;28;20007;-49
2022/07/25 12:29:33;;;;;;;;;;;34.30;52.00;;;;;;5094371;28;19912;-49
2022/07/25 12:31:58;;;;;;;;;;;34.40;51.20;;;;;;5094121;28;19923;-48
2022/07/25 12:34:24;;;;;;;;;;;34.50;51.70;;;;;;5076145;28;20014;-52
2022/07/25 12:36:51;;;;;;;;;;;34.70;51.90;;;;;;5094625;28;19947;-51
2022/07/25 12:39:17;;;;;;;;;;;34.80;51.60;;;;;;5094830;28;20011;-50
2022/07/25 12:41:42;;;;;;;;;;;34.80;50.60;;;;;;5094657;28;19966;-52
2022/07/25 12:44:08;;;;;;;;;;;34.90;50.10;;;;;;5093359;28;19916;-48
2022/07/25 12:46:34;;;;;;;;;;;35.10;50.10;;;;;;5093644;28;19919;-48
2022/07/25 12:49:01;;;;;;;;;;;34.90;50.40;;;;;;5093857;28;19912;-48
2022/07/25 12:51:26;;;;;;;;;;;34.70;50.60;;;;;;5093874;28;19915;-47
2022/07/25 12:53:52;;;;;;;;;;;34.60;50.60;;;;;;5094340;28;20298;-48
2022/07/25 12:56:17;;;;;;;;;;;34.70;49.90;;;;;;5093562;28;19916;-50
2022/07/25 12:58:43;;;;;;;;;;;34.90;49.40;;;;;;5093628;28;19966;-49
2022/07/25 13:01:08;;;;;;;;;;;35.10;49.20;;;;;;5092361;28;20287;-51
2022/07/25 13:03:34;;;;;;;;;;;34.80;50.30;;;;;;5093173;28;19934;-48
2022/07/25 13:06:00;;;;;;;;;;;34.70;50.50;;;;;;5092223;28;19915;-52
2022/07/25 13:08:26;;;;;;;;;;;34.70;50.60;;;;;;5094492;28;19970;-53
2022/07/25 13:10:51;;;;;;;;;;;34.60;50.80;;;;;;5093610;28;20411;-53
2022/07/25 13:13:17;;;;;;;;;;;34.50;51.20;;;;;;5093579;28;19951;-48
2022/07/25 13:15:42;;;;;;;;;;;34.40;50.90;;;;;;5093719;28;20019;-49
2022/07/25 13:18:08;;;;;;;;;;;34.40;51.40;;;;;;5093129;28;19908;-52
2022/07/25 13:20:36;;;;;;;;;;;34.40;51.50;;;;;;5093319;28;20294;-47
2022/07/25 13:23:02;;;;;;;;;;;34.40;50.80;;;;;;5092865;28;19958;-53
2022/07/25 13:25:31;;;;;;;;;;;34.50;50.30;;;;;;5092909;28;20383;-48
2022/07/25 13:27:56;;;;;;;;;;;34.80;49.90;;;;;;5092777;28;19912;-54
2022/07/25 13:30:22;;;;;;;;;;;35.10;50.10;;;;;;5093096;28;19965;-47
2022/07/25 13:32:47;;;;;;;;;;;35.40;50.40;;;;;;5092736;28;19908;-48
2022/07/25 13:35:13;;;;;;;;;;;35.60;49.60;;;;;;5092835;28;20375;-50
2022/07/25 13:37:38;;;;;;;;;;;35.60;49.60;;;;;;5092478;28;20244;-53
2022/07/25 13:40:05;;;;;;;;;;;35.50;49.20;;;;;;5093465;28;19980;-48
2022/07/25 13:42:30;;;;;;;;;;;35.20;49.60;;;;;;5093816;28;20317;-47
2022/07/25 13:44:56;;;;;;;;;;;34.90;50.50;;;;;;5092611;28;19985;-48
2022/07/25 13:47:21;;;;;;;;;;;34.70;50.60;;;;;;5092948;28;19912;-49
2022/07/25 13:49:47;;;;;;;;;;;34.60;51.00;;;;;;5092352;28;19908;-53
2022/07/25 13:52:13;;;;;;;;;;;34.60;51.30;;;;;;5093594;28;19918;-47
2022/07/25 13:54:38;;;;;;;;;;;34.60;51.30;;;;;;5093571;28;19912;-48
2022/07/25 13:57:04;;;;;;;;;;;34.60;51.20;;;;;;5093126;28;20367;-49
2022/07/25 13:59:29;;;;;;;;;;;34.60;50.90;;;;;;5093062;28;19924;-53
2022/07/25 14:01:55;;;;;;;;;;;34.70;50.90;;;;;;5093191;28;20018;-49
2022/07/25 14:04:20;;;;;;;;;;;34.80;50.50;;;;;;5092889;28;19919;-49
2022/07/25 14:06:50;;;;;;;;;;;35.00;50.90;;;;;;5092716;28;19908;-52
2022/07/25 14:09:16;;;;;;;;;;;35.00;50.90;;;;;;5092411;28;19919;-53
2022/07/25 14:11:42;;;;;;;;;;;35.20;50.70;;;;;;5093246;28;19995;-52
2022/07/25 14:14:07;;;;;;;;;;;35.50;50.40;;;;;;5097012;28;19976;-52